Hlavní strana
METAR-TAF:

METAR-TAF

Letiště :

Minneapolis, Minnesota, Spojené státy americké

Mezinárodní letiště Minneapolis-Saint Paul

zeměpisná šířka: 44-52-59N, zeměpisná délka: 093-13-44W, výška: 256 m

Aktuální stav počasí

Zpráva byla vytvořena před 54 minutami, v 01:53 UTC
Západoseverozápadní vítr 4 kt
Teplota 11°C
Vlhkost vzduchu 40%
Tlak 1027 hPa
Viditelnost: 16.1 km
Jasno

METAR: KMSP 220153Z 30004KT 10SM CLR 11/M02 A3034 RMK AO2 SLP281 T01111017

Čas: 21:47 (02:47 UTC)

Předpověď počasí

Zpráva byla vytvořena před 3 hodinami a 25 minutami, v 23:22 UTC
Předpověď platná od 22 v 00 UTC do 23 v 06 UTC
Jihojihovýchodní vítr 4 kt
Viditelnost: 10 km
Skoro jasno ve výšce 25000 ft
Od 22 v 1900 UTC
Jihojihovýchodní vítr 9 kt
Viditelnost: 10 km
Skoro jasno ve výšce 25000 ft

TAF: KMSP 212322Z 2200/2306 16004KT P6SM FEW250 FM221900 16009KT P6SM FEW250

Stav a předpovědi počasí z více než 4 000 letišť (zprávy METAR a TAF).

Červené a žluté tečky na mapě představují dostupné meteorologické stanice.

Když kurzor umístíte na tečku, zobrazí se název stanice.

Pak kliknutím zobrazíte stav a předpověď počasí.

Chcete-li změnit mapu, kliknutím na zelené tlačítko se znaménkem +mapu přiblížíte, kliknutím na zelené tlačítko se znaménkem – mapu oddálíte a kliknutím na zelené šipky přejdete na sousední mapy.


METAR-TAF: